Time;durP1;ratioP1;P1;durP2;ratioP2;P2;SDS_P1;SDS_P2;PMS_P1;PMS_P2;Temp;Humidity;BMP_temperature;BMP_pressure;BME280_temperature;BME280_humidity;BME280_pressure;Samples;Min_cycle;Max_cycle;Signal;HPM_P1;HPM_P2
2024/01/31 00:00:08;;;;;;;3.60;1.70;;;;;;;;;;5129525;27;20210;-44
2024/01/31 00:02:34;;;;;;;2.43;1.60;;;;;;;;;;5129517;27;20202;-44
2024/01/31 00:05:01;;;;;;;3.37;1.73;;;;;;;;;;5129609;27;20683;-44
2024/01/31 00:07:27;;;;;;;4.43;1.80;;;;;;;;;;5129570;27;20311;-44
2024/01/31 00:09:53;;;;;;;2.77;1.50;;;;;;;;;;5129475;27;20190;-44
2024/01/31 00:12:19;;;;;;;3.90;1.60;;;;;;;;;;5129085;27;20242;-44
2024/01/31 00:14:45;;;;;;;3.90;1.77;;;;;;;;;;5129277;27;20198;-44
2024/01/31 00:17:11;;;;;;;2.97;1.50;;;;;;;;;;5129397;27;20217;-44
2024/01/31 00:19:37;;;;;;;3.70;1.40;;;;;;;;;;5129291;27;20217;-43
2024/01/31 00:22:05;;;;;;;3.10;1.73;;;;;;;;;;5129295;27;20244;-43
2024/01/31 00:24:31;;;;;;;2.80;1.73;;;;;;;;;;5118507;27;20209;-44
2024/01/31 00:26:57;;;;;;;4.30;1.90;;;;;;;;;;5115428;28;20206;-44
2024/01/31 00:29:23;;;;;;;1.83;1.37;;;;;;;;;;5115424;28;20190;-44
2024/01/31 00:31:49;;;;;;;4.17;1.70;;;;;;;;;;5115206;28;20214;-44
2024/01/31 00:34:15;;;;;;;3.93;1.90;;;;;;;;;;5115502;28;20194;-44
2024/01/31 00:36:41;;;;;;;2.63;1.70;;;;;;;;;;5114768;28;20221;-44
2024/01/31 00:39:10;;;;;;;2.77;1.60;;;;;;;;;;5115371;28;20236;-44
2024/01/31 00:41:36;;;;;;;1.97;1.60;;;;;;;;;;5113882;28;20628;-44
2024/01/31 00:44:02;;;;;;;2.50;1.53;;;;;;;;;;5115074;28;20645;-44
2024/01/31 00:46:28;;;;;;;2.30;1.50;;;;;;;;;;5115240;28;20226;-44
2024/01/31 00:48:55;;;;;;;2.30;1.70;;;;;;;;;;5114728;28;20199;-45
2024/01/31 00:51:21;;;;;;;2.97;1.50;;;;;;;;;;5115016;28;20245;-45
2024/01/31 00:53:47;;;;;;;3.10;1.40;;;;;;;;;;5114848;28;20712;-45
2024/01/31 00:56:14;;;;;;;2.27;1.20;;;;;;;;;;5115097;27;20198;-45
2024/01/31 00:58:40;;;;;;;1.33;1.20;;;;;;;;;;5114652;28;20664;-45
2024/01/31 01:01:06;;;;;;;2.67;1.30;;;;;;;;;;5114785;28;20221;-45
2024/01/31 01:03:32;;;;;;;1.83;1.23;;;;;;;;;;5114916;28;20672;-45
2024/01/31 01:05:58;;;;;;;2.97;1.13;;;;;;;;;;5114780;28;20229;-44
2024/01/31 01:08:24;;;;;;;1.53;1.30;;;;;;;;;;5114908;28;20183;-45
2024/01/31 01:10:50;;;;;;;1.67;1.20;;;;;;;;;;5114666;28;20194;-45
2024/01/31 01:13:17;;;;;;;2.07;1.53;;;;;;;;;;5114338;28;20234;-45
2024/01/31 01:15:43;;;;;;;3.87;1.50;;;;;;;;;;5114367;28;20212;-45
2024/01/31 01:18:09;;;;;;;2.53;1.50;;;;;;;;;;5114422;28;20586;-45
2024/01/31 01:20:35;;;;;;;2.80;1.53;;;;;;;;;;5112464;28;20198;-45
2024/01/31 01:23:01;;;;;;;5.07;1.67;;;;;;;;;;5112946;28;20190;-46
2024/01/31 01:25:27;;;;;;;2.97;1.40;;;;;;;;;;5114504;28;20285;-46
2024/01/31 01:27:53;;;;;;;2.80;1.40;;;;;;;;;;5114420;28;20248;-45
2024/01/31 01:30:21;;;;;;;1.97;1.40;;;;;;;;;;5114513;28;20205;-46
2024/01/31 01:32:47;;;;;;;2.70;1.30;;;;;;;;;;5114282;27;20268;-45
2024/01/31 01:35:13;;;;;;;3.73;1.60;;;;;;;;;;5113528;28;20313;-46
2024/01/31 01:37:40;;;;;;;2.40;1.20;;;;;;;;;;5114242;28;20195;-45
2024/01/31 01:40:06;;;;;;;3.27;1.40;;;;;;;;;;5114321;28;20218;-46
2024/01/31 01:42:32;;;;;;;2.10;1.17;;;;;;;;;;5114264;28;20201;-45
2024/01/31 01:44:58;;;;;;;2.33;1.30;;;;;;;;;;5114129;28;20197;-46
2024/01/31 01:47:25;;;;;;;1.90;1.30;;;;;;;;;;5114163;28;20237;-46
2024/01/31 01:49:51;;;;;;;2.07;1.20;;;;;;;;;;5113999;28;20656;-46
2024/01/31 01:52:18;;;;;;;2.87;1.30;;;;;;;;;;5113962;28;20232;-46
2024/01/31 01:54:45;;;;;;;2.83;1.50;;;;;;;;;;5113972;28;20191;-46
2024/01/31 01:57:11;;;;;;;5.77;1.57;;;;;;;;;;5114004;28;20198;-46
2024/01/31 01:59:37;;;;;;;3.43;1.40;;;;;;;;;;5113890;28;20194;-46
2024/01/31 02:02:03;;;;;;;1.60;1.23;;;;;;;;;;5113770;28;20251;-46
2024/01/31 02:04:30;;;;;;;1.80;1.43;;;;;;;;;;5113906;28;20542;-46
2024/01/31 02:06:56;;;;;;;2.93;1.60;;;;;;;;;;5113590;28;20210;-46
2024/01/31 02:09:23;;;;;;;3.40;1.50;;;;;;;;;;5113720;27;20194;-46
2024/01/31 02:11:49;;;;;;;4.00;1.60;;;;;;;;;;5113352;28;20287;-46
2024/01/31 02:14:15;;;;;;;2.50;1.10;;;;;;;;;;5113671;27;20727;-46
2024/01/31 02:16:44;;;;;;;3.73;1.50;;;;;;;;;;5113401;28;20270;-47
2024/01/31 02:19:10;;;;;;;2.40;1.50;;;;;;;;;;5113571;28;20206;-46
2024/01/31 02:21:38;;;;;;;2.07;1.40;;;;;;;;;;5113399;28;20206;-46
2024/01/31 02:24:05;;;;;;;2.83;1.40;;;;;;;;;;5113523;28;20198;-46
2024/01/31 02:26:31;;;;;;;2.97;1.60;;;;;;;;;;5113502;28;20205;-46
2024/01/31 02:28:57;;;;;;;2.43;1.47;;;;;;;;;;5113346;28;20194;-46
2024/01/31 02:31:23;;;;;;;2.30;1.47;;;;;;;;;;5113338;28;20202;-46
2024/01/31 02:33:49;;;;;;;2.00;1.57;;;;;;;;;;5113185;28;20301;-46
2024/01/31 02:36:15;;;;;;;2.17;1.30;;;;;;;;;;5109817;28;20194;-46
2024/01/31 02:38:41;;;;;;;2.13;1.40;;;;;;;;;;5106336;28;20564;-46
2024/01/31 02:41:09;;;;;;;2.63;1.53;;;;;;;;;;5104301;27;20194;-47
2024/01/31 02:43:35;;;;;;;3.03;1.40;;;;;;;;;;5104576;28;20198;-46
2024/01/31 02:46:01;;;;;;;3.83;1.70;;;;;;;;;;5102555;28;20255;-47
2024/01/31 02:48:27;;;;;;;1.93;1.70;;;;;;;;;;5107803;28;20282;-46
2024/01/31 02:50:53;;;;;;;2.90;1.60;;;;;;;;;;5106050;28;20837;-46
2024/01/31 02:53:19;;;;;;;6.50;2.57;;;;;;;;;;5105965;28;20313;-47
2024/01/31 02:55:45;;;;;;;2.37;1.87;;;;;;;;;;5104215;28;20201;-47
2024/01/31 02:58:12;;;;;;;2.73;1.60;;;;;;;;;;5104325;28;20190;-47
2024/01/31 03:00:39;;;;;;;2.80;1.37;;;;;;;;;;5102544;28;20213;-46
2024/01/31 03:03:05;;;;;;;1.63;1.50;;;;;;;;;;5104138;28;20206;-46
2024/01/31 03:05:30;;;;;;;5.00;2.00;;;;;;;;;;5102463;28;20424;-47
2024/01/31 03:07:56;;;;;;;5.83;2.20;;;;;;;;;;5098942;28;20198;-46
2024/01/31 03:10:22;;;;;;;3.50;1.37;;;;;;;;;;5102154;28;20198;-47
2024/01/31 03:12:48;;;;;;;2.10;1.50;;;;;;;;;;5101647;28;20238;-46
2024/01/31 03:15:16;;;;;;;1.40;1.30;;;;;;;;;;5104236;28;20778;-47
2024/01/31 03:17:42;;;;;;;2.50;1.40;;;;;;;;;;5102361;28;20230;-46
2024/01/31 03:20:10;;;;;;;2.03;1.50;;;;;;;;;;5102097;28;20194;-46
2024/01/31 03:22:37;;;;;;;2.60;1.50;;;;;;;;;;5098827;28;20432;-46
2024/01/31 03:25:03;;;;;;;3.17;1.77;;;;;;;;;;5102157;28;20636;-47
2024/01/31 03:27:29;;;;;;;3.53;1.70;;;;;;;;;;5104124;28;20261;-46
2024/01/31 03:29:56;;;;;;;1.40;1.30;;;;;;;;;;5098664;28;20531;-47
2024/01/31 03:32:23;;;;;;;1.50;1.40;;;;;;;;;;5103904;28;20309;-46
2024/01/31 03:34:49;;;;;;;2.63;1.30;;;;;;;;;;5103677;28;20439;-47
2024/01/31 03:37:15;;;;;;;3.97;1.60;;;;;;;;;;5102195;28;20436;-46
2024/01/31 03:39:41;;;;;;;2.10;1.30;;;;;;;;;;5102271;28;20198;-46
2024/01/31 03:42:07;;;;;;;2.00;1.50;;;;;;;;;;5100340;28;20489;-47
2024/01/31 03:44:33;;;;;;;2.73;1.60;;;;;;;;;;5102231;28;20653;-47
2024/01/31 03:46:59;;;;;;;1.40;1.30;;;;;;;;;;5102056;28;20286;-47
2024/01/31 03:49:27;;;;;;;5.17;1.70;;;;;;;;;;5098565;28;20198;-46
2024/01/31 03:51:52;;;;;;;2.90;1.60;;;;;;;;;;5100099;28;21392;-46
2024/01/31 03:54:19;;;;;;;2.43;1.30;;;;;;;;;;5099449;28;20507;-46
2024/01/31 03:56:45;;;;;;;2.83;1.40;;;;;;;;;;5101977;28;20198;-46
2024/01/31 03:59:11;;;;;;;2.00;1.80;;;;;;;;;;5101761;28;20197;-46
2024/01/31 04:01:37;;;;;;;1.93;1.47;;;;;;;;;;5104109;28;20206;-46
2024/01/31 04:04:03;;;;;;;2.93;1.30;;;;;;;;;;5103815;28;20201;-46
2024/01/31 04:06:30;;;;;;;1.73;1.40;;;;;;;;;;5105651;28;20211;-46
2024/01/31 04:08:56;;;;;;;3.27;1.40;;;;;;;;;;5105595;28;20444;-46
2024/01/31 04:11:22;;;;;;;3.60;1.60;;;;;;;;;;5103708;28;20205;-47
2024/01/31 04:13:48;;;;;;;2.97;1.50;;;;;;;;;;5101917;27;20251;-46
2024/01/31 04:16:15;;;;;;;3.43;1.83;;;;;;;;;;5105756;28;20562;-46
2024/01/31 04:18:41;;;;;;;3.40;1.50;;;;;;;;;;5103749;28;20222;-46
2024/01/31 04:21:07;;;;;;;3.77;1.40;;;;;;;;;;5101761;28;20194;-47
2024/01/31 04:23:35;;;;;;;2.17;1.20;;;;;;;;;;5103767;28;20664;-47
2024/01/31 04:26:02;;;;;;;1.83;1.50;;;;;;;;;;5103560;27;20199;-47
2024/01/31 04:28:28;;;;;;;4.83;1.60;;;;;;;;;;5103644;28;20240;-46
2024/01/31 04:30:53;;;;;;;2.10;1.33;;;;;;;;;;5101689;28;20456;-47
2024/01/31 04:33:22;;;;;;;3.27;1.20;;;;;;;;;;5105184;28;20232;-47
2024/01/31 04:35:48;;;;;;;2.47;1.23;;;;;;;;;;5101643;28;20210;-46
2024/01/31 04:38:14;;;;;;;3.47;1.53;;;;;;;;;;5103343;28;20948;-47
2024/01/31 04:40:41;;;;;;;1.37;1.27;;;;;;;;;;5103385;28;20198;-46
2024/01/31 04:43:07;;;;;;;2.10;1.10;;;;;;;;;;5101347;28;20569;-46
2024/01/31 04:45:33;;;;;;;4.03;1.60;;;;;;;;;;5101270;28;20198;-47
2024/01/31 04:47:59;;;;;;;3.73;1.30;;;;;;;;;;5104913;28;20436;-46
2024/01/31 04:50:25;;;;;;;2.33;1.50;;;;;;;;;;5103093;28;20513;-46
2024/01/31 04:52:51;;;;;;;3.70;1.53;;;;;;;;;;5102932;28;20222;-47
2024/01/31 04:55:17;;;;;;;1.23;1.13;;;;;;;;;;5104990;28;20572;-47
2024/01/31 04:57:45;;;;;;;2.60;1.20;;;;;;;;;;5101319;28;20237;-47
2024/01/31 05:00:14;;;;;;;2.43;1.20;;;;;;;;;;5102832;28;20199;-47
2024/01/31 05:02:40;;;;;;;3.50;1.43;;;;;;;;;;5102893;28;20545;-47
2024/01/31 05:05:06;;;;;;;2.57;1.20;;;;;;;;;;5102677;28;20904;-46
2024/01/31 05:07:32;;;;;;;2.93;1.33;;;;;;;;;;5104634;28;20320;-46
2024/01/31 05:09:58;;;;;;;1.87;1.20;;;;;;;;;;5102885;28;21016;-46
2024/01/31 05:12:24;;;;;;;3.83;1.50;;;;;;;;;;5100824;28;20568;-47
2024/01/31 05:14:51;;;;;;;2.67;1.20;;;;;;;;;;5102558;28;20224;-47
2024/01/31 05:17:17;;;;;;;2.73;1.40;;;;;;;;;;5099112;28;20229;-47
2024/01/31 05:19:43;;;;;;;3.23;1.30;;;;;;;;;;5102656;28;20191;-47
2024/01/31 05:22:09;;;;;;;2.70;1.80;;;;;;;;;;5100708;28;20648;-47
2024/01/31 05:24:35;;;;;;;4.40;1.97;;;;;;;;;;5100847;28;20247;-47
2024/01/31 05:27:03;;;;;;;3.27;1.27;;;;;;;;;;5100732;28;20193;-46
2024/01/31 05:29:29;;;;;;;2.77;1.20;;;;;;;;;;5100720;28;20202;-47
2024/01/31 05:31:57;;;;;;;3.07;1.30;;;;;;;;;;5100775;28;20759;-46
2024/01/31 05:34:23;;;;;;;1.80;1.63;;;;;;;;;;5100532;28;20194;-46
2024/01/31 05:36:49;;;;;;;2.40;1.30;;;;;;;;;;5100492;28;21126;-46
2024/01/31 05:39:15;;;;;;;2.93;1.57;;;;;;;;;;5102222;28;20213;-47
2024/01/31 05:41:42;;;;;;;3.43;1.40;;;;;;;;;;5100530;28;20205;-47
2024/01/31 05:44:08;;;;;;;3.50;1.40;;;;;;;;;;5100265;28;20206;-46
2024/01/31 05:46:34;;;;;;;1.63;1.37;;;;;;;;;;5100120;28;20435;-47
2024/01/31 05:49:02;;;;;;;2.93;1.40;;;;;;;;;;5100184;28;20182;-47
2024/01/31 05:51:28;;;;;;;2.37;1.50;;;;;;;;;;5102041;28;20209;-47
2024/01/31 05:53:54;;;;;;;2.50;1.73;;;;;;;;;;5101841;28;20598;-47
2024/01/31 05:56:20;;;;;;;2.73;1.30;;;;;;;;;;5100291;28;20204;-47
2024/01/31 05:58:46;;;;;;;2.97;1.37;;;;;;;;;;5100108;28;20250;-46
2024/01/31 06:01:12;;;;;;;1.60;1.17;;;;;;;;;;5101675;28;20632;-47
2024/01/31 06:03:38;;;;;;;1.67;1.13;;;;;;;;;;5099625;28;20237;-46
2024/01/31 06:06:06;;;;;;;3.23;1.50;;;;;;;;;;5099748;27;20255;-46
2024/01/31 06:08:32;;;;;;;2.73;1.40;;;;;;;;;;5101721;28;20202;-47
2024/01/31 06:11:03;;;;;;;4.60;1.20;;;;;;;;;;5099841;28;20310;-47
2024/01/31 06:13:29;;;;;;;2.53;1.00;;;;;;;;;;5099653;28;20322;-47
2024/01/31 06:15:55;;;;;;;1.43;1.33;;;;;;;;;;5101308;28;20930;-46
2024/01/31 06:18:22;;;;;;;1.60;1.37;;;;;;;;;;5099579;28;20274;-47
2024/01/31 06:20:48;;;;;;;1.80;1.40;;;;;;;;;;5100812;28;20194;-46
2024/01/31 06:23:16;;;;;;;2.27;1.33;;;;;;;;;;5100944;28;20251;-46
2024/01/31 06:25:42;;;;;;;2.20;1.10;;;;;;;;;;5099692;27;20202;-46
2024/01/31 06:28:08;;;;;;;1.47;1.07;;;;;;;;;;5099431;28;20779;-47
2024/01/31 06:30:41;;;;;;;2.43;1.27;;;;;;;;;;5101259;27;20964;-46
2024/01/31 06:33:07;;;;;;;1.23;1.13;;;;;;;;;;5100012;28;20272;-47
2024/01/31 06:35:33;;;;;;;1.80;1.70;;;;;;;;;;5102690;28;21005;-47
2024/01/31 06:37:59;;;;;;;1.93;1.27;;;;;;;;;;5099175;28;20520;-47
2024/01/31 06:40:27;;;;;;;1.40;1.30;;;;;;;;;;5099310;28;20206;-47
2024/01/31 06:42:53;;;;;;;2.30;1.60;;;;;;;;;;5100927;28;20209;-46
2024/01/31 06:45:19;;;;;;;3.87;1.63;;;;;;;;;;5100946;28;20206;-46
2024/01/31 06:47:45;;;;;;;1.70;1.30;;;;;;;;;;5099323;28;20544;-47
2024/01/31 06:50:11;;;;;;;2.83;1.70;;;;;;;;;;5100817;28;20198;-47
2024/01/31 06:52:37;;;;;;;2.23;1.73;;;;;;;;;;5100744;28;20230;-47
2024/01/31 06:55:03;;;;;;;5.00;2.10;;;;;;;;;;5098986;28;20451;-47
2024/01/31 06:57:32;;;;;;;1.40;1.30;;;;;;;;;;5101026;28;20236;-47
2024/01/31 06:59:58;;;;;;;3.90;1.40;;;;;;;;;;5098907;28;20972;-47
2024/01/31 07:02:25;;;;;;;2.90;1.27;;;;;;;;;;5100776;28;20432;-47
2024/01/31 07:04:51;;;;;;;5.20;1.30;;;;;;;;;;5099045;28;20493;-47
2024/01/31 07:07:17;;;;;;;2.80;1.03;;;;;;;;;;5099064;28;20984;-46
2024/01/31 07:09:43;;;;;;;2.70;1.20;;;;;;;;;;5099127;28;20194;-46
2024/01/31 07:12:09;;;;;;;2.37;1.40;;;;;;;;;;5098855;28;20261;-46
2024/01/31 07:14:36;;;;;;;1.20;1.10;;;;;;;;;;5100638;28;20713;-47
2024/01/31 07:17:02;;;;;;;3.43;1.50;;;;;;;;;;5098961;28;20464;-47
2024/01/31 07:19:28;;;;;;;1.70;1.37;;;;;;;;;;5099180;28;20432;-47
2024/01/31 07:21:54;;;;;;;3.37;1.90;;;;;;;;;;5099016;28;20198;-47
2024/01/31 07:24:20;;;;;;;1.77;1.20;;;;;;;;;;5098593;28;20251;-47
2024/01/31 07:26:46;;;;;;;2.97;1.30;;;;;;;;;;5098788;28;20197;-47
2024/01/31 07:29:12;;;;;;;3.33;1.80;;;;;;;;;;5098250;28;20420;-47
2024/01/31 07:31:39;;;;;;;5.67;2.00;;;;;;;;;;5098764;28;20198;-47
2024/01/31 07:34:05;;;;;;;2.90;1.70;;;;;;;;;;5099995;28;20226;-47
2024/01/31 07:36:31;;;;;;;4.47;1.50;;;;;;;;;;5104108;28;20201;-47
2024/01/31 07:38:57;;;;;;;3.00;1.30;;;;;;;;;;5104301;28;20668;-47
2024/01/31 07:41:23;;;;;;;2.40;1.50;;;;;;;;;;5102758;28;20228;-46
2024/01/31 07:43:49;;;;;;;2.23;1.67;;;;;;;;;;5104208;28;20547;-47
2024/01/31 07:46:15;;;;;;;2.17;1.37;;;;;;;;;;5104288;28;20282;-47
2024/01/31 07:48:42;;;;;;;2.30;1.50;;;;;;;;;;5102833;28;20228;-47
2024/01/31 07:51:08;;;;;;;3.37;1.70;;;;;;;;;;5103868;28;20443;-47
2024/01/31 07:53:34;;;;;;;5.10;1.40;;;;;;;;;;5104209;28;20591;-47
2024/01/31 07:56:01;;;;;;;4.50;1.60;;;;;;;;;;5104273;27;20205;-47
2024/01/31 07:58:27;;;;;;;4.63;1.63;;;;;;;;;;5100641;28;21172;-47
2024/01/31 08:00:52;;;;;;;3.20;1.77;;;;;;;;;;5105835;28;20194;-47
2024/01/31 08:03:19;;;;;;;2.13;1.40;;;;;;;;;;5103993;28;20540;-47
2024/01/31 08:05:46;;;;;;;3.33;1.37;;;;;;;;;;5102276;28;20198;-47
2024/01/31 08:08:12;;;;;;;3.57;1.50;;;;;;;;;;5103995;27;20444;-47
2024/01/31 08:10:38;;;;;;;2.13;1.50;;;;;;;;;;5102323;28;20451;-47
2024/01/31 08:13:05;;;;;;;2.40;1.60;;;;;;;;;;5102047;28;20273;-47
2024/01/31 08:15:32;;;;;;;4.30;1.90;;;;;;;;;;5103881;28;20435;-47
2024/01/31 08:17:58;;;;;;;3.50;1.70;;;;;;;;;;5103715;28;20695;-47
2024/01/31 08:20:24;;;;;;;4.07;1.50;;;;;;;;;;5102019;28;20198;-47
2024/01/31 08:22:51;;;;;;;3.57;1.50;;;;;;;;;;5101969;28;20634;-47
2024/01/31 08:25:18;;;;;;;2.80;1.33;;;;;;;;;;5101863;28;20214;-47
2024/01/31 08:27:44;;;;;;;3.47;1.27;;;;;;;;;;5101872;28;20708;-47
2024/01/31 08:30:11;;;;;;;2.27;1.27;;;;;;;;;;5103539;27;20200;-47
2024/01/31 08:32:37;;;;;;;2.37;1.17;;;;;;;;;;5101899;28;20317;-47
2024/01/31 08:35:03;;;;;;;1.83;1.20;;;;;;;;;;5103441;28;20205;-47
2024/01/31 08:37:30;;;;;;;2.43;1.27;;;;;;;;;;5102270;28;20204;-47
2024/01/31 08:39:57;;;;;;;4.30;1.20;;;;;;;;;;5103521;28;20562;-47
2024/01/31 08:42:28;;;;;;;2.57;1.30;;;;;;;;;;5101396;28;20929;-47
2024/01/31 08:44:54;;;;;;;2.17;1.20;;;;;;;;;;5102362;28;20201;-47
2024/01/31 08:47:20;;;;;;;2.33;1.40;;;;;;;;;;5100135;28;20205;-47
2024/01/31 08:49:46;;;;;;;1.83;1.30;;;;;;;;;;5103074;27;20649;-46
2024/01/31 08:52:13;;;;;;;1.50;1.30;;;;;;;;;;5102970;28;20297;-46
2024/01/31 08:54:39;;;;;;;1.47;1.37;;;;;;;;;;5101410;28;20206;-46
2024/01/31 08:57:06;;;;;;;2.67;1.50;;;;;;;;;;5102929;28;20443;-47
2024/01/31 08:59:33;;;;;;;2.10;1.30;;;;;;;;;;5103136;28;20707;-46
2024/01/31 09:01:58;;;;;;;2.33;1.60;;;;;;;;;;5103136;27;20224;-46
2024/01/31 09:04:25;;;;;;;1.67;1.57;;;;;;;;;;5101009;28;20428;-47
2024/01/31 09:06:51;;;;;;;2.17;1.60;;;;;;;;;;5102782;28;20229;-47
2024/01/31 09:09:17;;;;;;;2.43;1.73;;;;;;;;;;5101126;28;20226;-46
2024/01/31 09:11:43;;;;;;;3.63;1.80;;;;;;;;;;5100855;28;20305;-47
2024/01/31 09:14:10;;;;;;;2.60;1.50;;;;;;;;;;5100559;28;20718;-46
2024/01/31 09:16:36;;;;;;;2.43;1.50;;;;;;;;;;5101029;27;20213;-47
2024/01/31 09:19:03;;;;;;;1.73;1.40;;;;;;;;;;5102624;28;20202;-45
2024/01/31 09:21:29;;;;;;;1.80;1.70;;;;;;;;;;5100686;28;20297;-47
2024/01/31 09:23:55;;;;;;;1.97;1.77;;;;;;;;;;5102477;28;20709;-46
2024/01/31 09:26:21;;;;;;;3.00;1.77;;;;;;;;;;5100715;28;20202;-46
2024/01/31 09:28:48;;;;;;;2.00;1.60;;;;;;;;;;5100774;28;20209;-47
2024/01/31 09:31:21;;;;;;;1.70;1.50;;;;;;;;;;5100636;28;20250;-46
2024/01/31 09:33:47;;;;;;;2.07;1.60;;;;;;;;;;5100482;28;20708;-46
2024/01/31 09:36:13;;;;;;;1.70;1.53;;;;;;;;;;5100309;28;20277;-46
2024/01/31 09:38:38;;;;;;;1.80;1.70;;;;;;;;;;5102121;28;20201;-46
2024/01/31 09:41:05;;;;;;;3.90;1.93;;;;;;;;;;5101834;28;20194;-46
2024/01/31 09:43:32;;;;;;;1.70;1.60;;;;;;;;;;5100452;28;20513;-46
2024/01/31 09:45:59;;;;;;;1.70;1.60;;;;;;;;;;5100135;28;20202;-46
2024/01/31 09:48:27;;;;;;;1.97;1.77;;;;;;;;;;5101763;28;20212;-47
2024/01/31 09:50:53;;;;;;;2.20;1.67;;;;;;;;;;5099938;28;20202;-46
2024/01/31 09:53:20;;;;;;;2.47;1.40;;;;;;;;;;5099760;28;20841;-46
2024/01/31 09:55:46;;;;;;;1.63;1.50;;;;;;;;;;5101260;28;20656;-46
2024/01/31 09:58:12;;;;;;;3.97;1.40;;;;;;;;;;5099496;28;20198;-46
2024/01/31 10:00:38;;;;;;;1.30;1.20;;;;;;;;;;5099962;28;20204;-46
2024/01/31 10:03:04;;;;;;;2.53;1.47;;;;;;;;;;5099762;28;20672;-46
2024/01/31 10:05:32;;;;;;;1.40;1.30;;;;;;;;;;5101492;28;20198;-46
2024/01/31 10:08:01;;;;;;;3.13;1.57;;;;;;;;;;5099893;28;20452;-46
2024/01/31 10:10:30;;;;;;;2.10;1.60;;;;;;;;;;5099698;28;20923;-46
2024/01/31 10:12:56;;;;;;;2.73;2.10;;;;;;;;;;5100745;28;20238;-46
2024/01/31 10:15:22;;;;;;;2.60;1.93;;;;;;;;;;5101263;27;20200;-46
2024/01/31 10:17:48;;;;;;;1.97;1.73;;;;;;;;;;5099576;28;20218;-46
2024/01/31 10:20:14;;;;;;;1.60;1.47;;;;;;;;;;5098894;28;20206;-46
2024/01/31 10:22:44;;;;;;;2.77;1.77;;;;;;;;;;5099559;28;20564;-46
2024/01/31 10:25:15;;;;;;;3.77;1.93;;;;;;;;;;5099489;28;20198;-46
2024/01/31 10:27:41;;;;;;;2.03;1.83;;;;;;;;;;5099408;28;20748;-47
2024/01/31 10:30:08;;;;;;;1.70;1.60;;;;;;;;;;5101268;28;20452;-46
2024/01/31 10:32:35;;;;;;;1.83;1.70;;;;;;;;;;5099445;28;20202;-46
2024/01/31 10:35:01;;;;;;;1.73;1.60;;;;;;;;;;5099368;27;20467;-46
2024/01/31 10:37:28;;;;;;;1.83;1.47;;;;;;;;;;5099220;27;20501;-46
2024/01/31 10:39:56;;;;;;;1.70;1.40;;;;;;;;;;5099036;28;20630;-46
2024/01/31 10:42:22;;;;;;;2.60;1.60;;;;;;;;;;5099201;28;20210;-46
2024/01/31 10:44:48;;;;;;;2.40;1.47;;;;;;;;;;5099161;28;20286;-46
2024/01/31 10:47:14;;;;;;;4.20;1.73;;;;;;;;;;5099341;28;20645;-46
2024/01/31 10:49:40;;;;;;;1.60;1.50;;;;;;;;;;5100957;28;20252;-46
2024/01/31 10:52:09;;;;;;;2.27;1.30;;;;;;;;;;5098927;28;20522;-46
2024/01/31 10:54:36;;;;;;;1.30;1.20;;;;;;;;;;5099134;28;20258;-46
2024/01/31 10:57:04;;;;;;;1.67;1.30;;;;;;;;;;5100959;28;20202;-46
2024/01/31 10:59:34;;;;;;;1.90;1.20;;;;;;;;;;5099333;28;20538;-46
2024/01/31 11:02:00;;;;;;;3.23;1.50;;;;;;;;;;5100915;28;20198;-46
2024/01/31 11:04:26;;;;;;;1.20;1.10;;;;;;;;;;5093729;28;20203;-46
2024/01/31 11:06:52;;;;;;;1.50;1.33;;;;;;;;;;5110932;28;20237;-46
2024/01/31 11:09:20;;;;;;;1.73;1.27;;;;;;;;;;5112192;28;20289;-46
2024/01/31 11:11:46;;;;;;;2.70;1.47;;;;;;;;;;5112308;28;20248;-46
2024/01/31 11:14:14;;;;;;;2.37;1.47;;;;;;;;;;5112550;28;20222;-46
2024/01/31 11:16:40;;;;;;;2.90;1.80;;;;;;;;;;5112325;28;20274;-46
2024/01/31 11:19:08;;;;;;;3.00;1.40;;;;;;;;;;5112533;28;20186;-46
2024/01/31 11:21:34;;;;;;;1.40;1.30;;;;;;;;;;5112425;28;20202;-46
2024/01/31 11:24:00;;;;;;;1.83;1.40;;;;;;;;;;5112762;28;20197;-46
2024/01/31 11:26:29;;;;;;;2.40;1.57;;;;;;;;;;5109176;28;20187;-46
2024/01/31 11:28:55;;;;;;;2.77;1.70;;;;;;;;;;5112768;28;20205;-46
2024/01/31 11:31:23;;;;;;;3.77;1.80;;;;;;;;;;5112390;28;20219;-46
2024/01/31 11:33:49;;;;;;;2.70;1.40;;;;;;;;;;5112017;28;20237;-46
2024/01/31 11:36:15;;;;;;;2.23;1.40;;;;;;;;;;5112341;28;20264;-46
2024/01/31 11:38:41;;;;;;;1.87;1.67;;;;;;;;;;5112519;28;20711;-46
2024/01/31 11:41:07;;;;;;;5.20;2.00;;;;;;;;;;5112329;28;20253;-46
2024/01/31 11:43:33;;;;;;;2.87;1.80;;;;;;;;;;5112370;28;20262;-46
2024/01/31 11:45:59;;;;;;;2.10;1.60;;;;;;;;;;5112363;28;20278;-46
2024/01/31 11:48:27;;;;;;;2.90;1.97;;;;;;;;;;5112194;28;20660;-46
2024/01/31 11:50:54;;;;;;;8.20;4.90;;;;;;;;;;5112367;28;20201;-45
2024/01/31 11:53:20;;;;;;;8.57;5.60;;;;;;;;;;5110399;28;20225;-46
2024/01/31 11:55:47;;;;;;;3.60;2.00;;;;;;;;;;5112429;28;20205;-46
2024/01/31 11:58:13;;;;;;;3.27;1.83;;;;;;;;;;5107071;28;20660;-46
2024/01/31 12:00:39;;;;;;;2.33;1.70;;;;;;;;;;5110517;28;20429;-46
2024/01/31 12:03:05;;;;;;;2.67;1.70;;;;;;;;;;5110512;28;20285;-46
2024/01/31 12:05:32;;;;;;;4.43;2.07;;;;;;;;;;5110338;28;20277;-46
2024/01/31 12:07:59;;;;;;;4.00;2.03;;;;;;;;;;5110575;28;20194;-45
2024/01/31 12:10:28;;;;;;;195.90;124.90;;;;;;;;;;5105073;28;20203;-46
2024/01/31 12:12:55;;;;;;;13.23;10.43;;;;;;;;;;5106837;28;20313;-46
2024/01/31 12:15:21;;;;;;;2.60;1.53;;;;;;;;;;5108633;28;20202;-46
2024/01/31 12:17:47;;;;;;;3.20;2.03;;;;;;;;;;5105204;28;20463;-46
2024/01/31 12:20:13;;;;;;;4.37;1.77;;;;;;;;;;5108156;28;20194;-45
2024/01/31 12:22:41;;;;;;;5.90;1.77;;;;;;;;;;5107214;28;20856;-46
2024/01/31 12:25:07;;;;;;;2.53;1.80;;;;;;;;;;5105301;28;20222;-45
2024/01/31 12:27:34;;;;;;;5.97;4.03;;;;;;;;;;5108612;28;20515;-46
2024/01/31 12:30:00;;;;;;;3.13;1.60;;;;;;;;;;5110628;28;20198;-45
2024/01/31 12:32:26;;;;;;;2.87;1.77;;;;;;;;;;5108852;28;20598;-46
2024/01/31 12:34:52;;;;;;;2.73;1.70;;;;;;;;;;5111764;28;20721;-46
2024/01/31 12:37:18;;;;;;;2.00;1.80;;;;;;;;;;5106902;28;20242;-45
2024/01/31 12:39:45;;;;;;;4.80;3.43;;;;;;;;;;5103595;28;20202;-45
2024/01/31 12:42:11;;;;;;;2.27;1.60;;;;;;;;;;5106730;28;20297;-46
2024/01/31 12:44:37;;;;;;;5.60;1.93;;;;;;;;;;5107754;28;20285;-45
2024/01/31 12:47:08;;;;;;;3.43;1.90;;;;;;;;;;5108518;28;20214;-46
2024/01/31 12:49:34;;;;;;;1.93;1.70;;;;;;;;;;5105637;28;20199;-46
2024/01/31 12:52:00;;;;;;;2.50;1.60;;;;;;;;;;5108423;28;20190;-45
2024/01/31 12:54:27;;;;;;;2.43;1.53;;;;;;;;;;5103082;28;20250;-45
2024/01/31 12:56:54;;;;;;;4.00;1.60;;;;;;;;;;5106653;28;20439;-45
2024/01/31 12:59:20;;;;;;;2.07;1.57;;;;;;;;;;5106308;28;20300;-46
2024/01/31 13:01:46;;;;;;;3.70;2.10;;;;;;;;;;5104742;28;20443;-45
2024/01/31 13:04:12;;;;;;;2.87;1.50;;;;;;;;;;5104559;28;20239;-45
2024/01/31 13:06:39;;;;;;;2.63;1.60;;;;;;;;;;5104941;28;20198;-46
2024/01/31 13:09:05;;;;;;;2.80;1.60;;;;;;;;;;5103105;28;20432;-46
2024/01/31 13:11:31;;;;;;;2.73;1.90;;;;;;;;;;5104696;28;20274;-46
2024/01/31 13:13:58;;;;;;;2.90;1.70;;;;;;;;;;5104519;28;20250;-46
2024/01/31 13:16:24;;;;;;;4.23;1.67;;;;;;;;;;5104404;28;20202;-46
2024/01/31 13:18:50;;;;;;;1.90;1.67;;;;;;;;;;5104270;28;20462;-46
2024/01/31 13:21:16;;;;;;;2.67;1.93;;;;;;;;;;5104334;28;20285;-46
2024/01/31 13:23:42;;;;;;;2.10;1.80;;;;;;;;;;5104505;28;20670;-46
2024/01/31 13:26:08;;;;;;;1.97;1.73;;;;;;;;;;5104292;28;20507;-45
2024/01/31 13:28:34;;;;;;;2.37;2.00;;;;;;;;;;5102421;28;20609;-46
2024/01/31 13:31:02;;;;;;;3.17;1.80;;;;;;;;;;5102531;28;20205;-45
2024/01/31 13:33:28;;;;;;;3.97;2.13;;;;;;;;;;5102282;28;20750;-46
2024/01/31 13:35:54;;;;;;;4.13;2.20;;;;;;;;;;5102348;28;20675;-46
2024/01/31 13:38:20;;;;;;;4.80;2.30;;;;;;;;;;5101322;28;20194;-46
2024/01/31 13:40:46;;;;;;;3.13;2.00;;;;;;;;;;5102198;28;20217;-46
2024/01/31 13:43:12;;;;;;;3.23;2.20;;;;;;;;;;5105679;28;20631;-47
2024/01/31 13:45:38;;;;;;;4.60;2.50;;;;;;;;;;5103921;28;20194;-46
2024/01/31 13:48:07;;;;;;;3.37;2.17;;;;;;;;;;5102114;28;20221;-46
2024/01/31 13:50:33;;;;;;;3.83;2.40;;;;;;;;;;5102042;28;20229;-46
2024/01/31 13:52:59;;;;;;;3.00;2.43;;;;;;;;;;5103707;28;20295;-46
2024/01/31 13:55:25;;;;;;;2.27;2.00;;;;;;;;;;5101897;28;20562;-46
2024/01/31 13:57:51;;;;;;;2.17;1.90;;;;;;;;;;5100277;28;20190;-45
2024/01/31 14:00:17;;;;;;;2.87;2.23;;;;;;;;;;5101804;28;20277;-46
2024/01/31 14:02:43;;;;;;;2.93;2.10;;;;;;;;;;5105224;28;20204;-46
2024/01/31 14:05:10;;;;;;;3.70;2.73;;;;;;;;;;5103316;28;20562;-46
2024/01/31 14:07:36;;;;;;;4.27;2.50;;;;;;;;;;5101748;28;20202;-46
2024/01/31 14:10:02;;;;;;;3.27;2.50;;;;;;;;;;5101782;28;20643;-46
2024/01/31 14:12:28;;;;;;;3.20;2.20;;;;;;;;;;5101610;28;20317;-46
2024/01/31 14:14:55;;;;;;;2.40;2.03;;;;;;;;;;5101485;28;20313;-46
2024/01/31 14:17:21;;;;;;;2.20;2.00;;;;;;;;;;5101343;28;20271;-46
2024/01/31 14:19:47;;;;;;;3.70;2.40;;;;;;;;;;5101393;28;20602;-46
2024/01/31 14:22:14;;;;;;;4.10;2.40;;;;;;;;;;5101819;28;20235;-46
2024/01/31 14:24:40;;;;;;;3.87;2.37;;;;;;;;;;5099740;28;20221;-46
2024/01/31 14:27:06;;;;;;;2.80;2.50;;;;;;;;;;5101545;28;20203;-46
2024/01/31 14:29:32;;;;;;;2.50;2.30;;;;;;;;;;5099582;28;20228;-46
2024/01/31 14:31:59;;;;;;;3.00;2.20;;;;;;;;;;5101428;28;20574;-45
2024/01/31 14:34:25;;;;;;;3.13;2.20;;;;;;;;;;5101197;28;20244;-45
2024/01/31 14:36:52;;;;;;;3.30;2.00;;;;;;;;;;5093902;28;20194;-45